Time;durP1;ratioP1;P1;durP2;ratioP2;P2;SDS_P1;SDS_P2;PMS_P1;PMS_P2;Temp;Humidity;BMP_temperature;BMP_pressure;BME280_temperature;BME280_humidity;BME280_pressure;Samples;Min_cycle;Max_cycle;Signal;HPM_P1;HPM_P2
2021/10/13 00:02:20;;;;;;;18.10;14.17;;;;;;;-140.05;100.00;61859.38;4994434;28;21049;-67
2021/10/13 00:04:48;;;;;;;17.67;13.83;;;;;;;-140.05;100.00;61859.38;5002224;28;20440;-66
2021/10/13 00:07:15;;;;;;;20.57;15.87;;;;;;;-140.05;100.00;61859.38;4996266;28;20441;-65
2021/10/13 00:09:42;;;;;;;21.37;15.97;;;;;;;-140.05;100.00;61859.38;5010983;28;20454;-66
2021/10/13 00:12:09;;;;;;;20.47;16.17;;;;;;;-140.05;100.00;61859.38;5009839;28;20443;-66
2021/10/13 00:14:36;;;;;;;20.27;16.20;;;;;;;-140.05;100.00;61859.38;5006648;28;20472;-66
2021/10/13 00:17:05;;;;;;;20.27;16.07;;;;;;;-140.05;100.00;61859.38;5001903;28;20449;-65
2021/10/13 00:19:32;;;;;;;19.67;16.03;;;;;;;-140.05;100.00;61859.38;4989016;28;20441;-69
2021/10/13 00:21:59;;;;;;;21.40;16.27;;;;;;;-140.05;100.00;61859.38;4997822;28;20457;-67
2021/10/13 00:24:26;;;;;;;21.00;16.10;;;;;;;-140.05;100.00;61859.38;4998136;28;21029;-67
2021/10/13 00:26:53;;;;;;;21.53;16.90;;;;;;;-140.05;100.00;61859.38;5002392;28;20936;-67
2021/10/13 00:29:21;;;;;;;22.67;17.23;;;;;;;-140.05;100.00;61859.38;4998104;28;20467;-67
2021/10/13 00:31:51;;;;;;;23.63;17.30;;;;;;;-140.05;100.00;61859.38;5003591;28;20448;-67
2021/10/13 00:34:18;;;;;;;21.07;16.87;;;;;;;-140.05;100.00;61859.38;5007563;28;20447;-68
2021/10/13 00:36:45;;;;;;;20.07;15.87;;;;;;;-140.05;100.00;61859.38;5001268;28;20870;-67
2021/10/13 00:39:12;;;;;;;21.60;17.40;;;;;;;-140.05;100.00;61859.38;5002534;28;20445;-66
2021/10/13 00:41:40;;;;;;;20.57;16.40;;;;;;;-140.05;100.00;61859.38;4994853;28;20445;-68
2021/10/13 00:44:07;;;;;;;21.83;16.53;;;;;;;-140.05;100.00;61859.38;4990028;28;20444;-66
2021/10/13 00:46:34;;;;;;;23.57;17.33;;;;;;;-140.05;100.00;61859.38;5004861;28;20906;-66
2021/10/13 00:49:01;;;;;;;21.83;16.50;;;;;;;-140.05;100.00;61859.38;5013930;28;20440;-67
2021/10/13 00:51:30;;;;;;;22.00;16.50;;;;;;;-140.05;100.00;61859.38;5012087;28;20443;-66
2021/10/13 00:53:57;;;;;;;20.47;15.93;;;;;;;-140.05;100.00;61859.38;5011071;28;20841;-67
2021/10/13 00:56:24;;;;;;;22.33;16.67;;;;;;;-140.05;100.00;61859.38;5019427;28;20502;-66
2021/10/13 00:58:52;;;;;;;20.67;16.00;;;;;;;-140.05;100.00;61859.38;5014838;28;20436;-66
2021/10/13 01:01:25;;;;;;;22.90;17.00;;;;;;;-140.05;100.00;61859.38;4994805;28;20483;-68
2021/10/13 01:04:17;;;;;;;22.10;16.97;;;;;;;-140.05;100.00;61859.38;5006807;28;20532;-67
2021/10/13 01:07:16;;;;;;;21.13;16.50;;;;;;;-140.05;100.00;61859.38;5005562;28;20444;-65
2021/10/13 01:10:16;;;;;;;20.80;16.47;;;;;;;-140.05;100.00;61859.38;5010931;28;21229;-67
2021/10/13 01:13:00;;;;;;;21.90;16.03;;;;;;;-140.05;100.00;61859.38;5002508;28;20449;-66
2021/10/13 01:15:36;;;;;;;20.97;16.37;;;;;;;-140.05;100.00;61859.38;5015079;28;20503;-66
2021/10/13 01:18:22;;;;;;;20.37;15.77;;;;;;;-140.05;100.00;61859.38;5010712;28;20828;-67
2021/10/13 01:21:05;;;;;;;21.47;17.20;;;;;;;-140.05;100.00;61859.38;5008400;28;20448;-66
2021/10/13 01:27:00;;;;;;;22.00;17.40;;;;;;;-140.05;100.00;61859.38;5011665;28;20932;-66
2021/10/13 01:29:30;;;;;;;22.73;16.83;;;;;;;-140.05;100.00;61859.38;5011378;28;20532;-69
2021/10/13 01:32:10;;;;;;;22.70;16.63;;;;;;;-140.05;100.00;61859.38;5011014;28;21021;-69
2021/10/13 01:34:43;;;;;;;23.97;17.33;;;;;;;-140.05;100.00;61859.38;5011501;28;20444;-70
2021/10/13 01:37:17;;;;;;;22.27;16.80;;;;;;;-140.05;100.00;61859.38;5008523;28;20455;-68
2021/10/13 01:39:48;;;;;;;22.83;17.33;;;;;;;-140.05;100.00;61859.38;5009155;28;20498;-67
2021/10/13 01:42:17;;;;;;;22.80;17.47;;;;;;;-140.05;100.00;61859.38;5002985;28;20448;-67
2021/10/13 01:44:55;;;;;;;23.73;18.03;;;;;;;-140.05;100.00;61859.38;5014374;28;20454;-68
2021/10/13 01:47:24;;;;;;;23.53;17.83;;;;;;;-140.05;100.00;61859.38;4989156;28;20444;-69
2021/10/13 01:49:57;;;;;;;22.77;17.30;;;;;;;-140.05;100.00;61859.38;5008435;28;20463;-66
2021/10/13 01:52:26;;;;;;;22.63;18.27;;;;;;;-140.05;100.00;61859.38;5017935;28;20458;-69
2021/10/13 01:54:56;;;;;;;28.60;19.73;;;;;;;-140.05;100.00;61859.38;5021172;28;20530;-65
2021/10/13 01:57:25;;;;;;;25.20;19.63;;;;;;;-140.05;100.00;61859.38;5014747;28;20449;-67
2021/10/13 01:59:56;;;;;;;26.27;19.60;;;;;;;-140.05;100.00;61859.38;5012392;28;20504;-68
2021/10/13 02:02:31;;;;;;;24.33;19.37;;;;;;;-140.05;100.00;61859.38;4996555;28;20536;-68
2021/10/13 02:04:59;;;;;;;23.23;18.47;;;;;;;-140.05;100.00;61859.38;5022557;28;20493;-66
2021/10/13 02:07:27;;;;;;;25.07;19.03;;;;;;;-140.05;100.00;61859.38;5019877;28;20504;-67
2021/10/13 02:09:58;;;;;;;25.50;19.43;;;;;;;-140.05;100.00;61859.38;5018374;28;20445;-68
2021/10/13 02:12:28;;;;;;;25.60;19.60;;;;;;;-140.05;100.00;61859.38;5010247;28;21023;-68
2021/10/13 02:14:58;;;;;;;28.10;19.97;;;;;;;-140.05;100.00;61859.38;5022819;28;20444;-68
2021/10/13 02:17:25;;;;;;;24.20;19.10;;;;;;;-140.05;100.00;61859.38;5013428;28;20448;-68
2021/10/13 02:19:53;;;;;;;25.53;19.20;;;;;;;-140.05;100.00;61859.38;5014144;28;20766;-67
2021/10/13 02:22:21;;;;;;;24.30;19.87;;;;;;;-140.05;100.00;61859.38;5019042;28;20448;-67
2021/10/13 02:24:51;;;;;;;25.77;19.63;;;;;;;-140.05;100.00;61859.38;5019306;28;20450;-69
2021/10/13 02:27:30;;;;;;;25.80;18.93;;;;;;;-140.05;100.00;61859.38;5028562;28;20486;-67
2021/10/13 02:29:58;;;;;;;26.93;19.87;;;;;;;-140.05;100.00;61859.38;5022817;28;20449;-66
2021/10/13 02:32:25;;;;;;;25.23;19.03;;;;;;;-140.05;100.00;61859.38;5018335;28;20946;-66
2021/10/13 02:34:52;;;;;;;23.27;18.63;;;;;;;-140.05;100.00;61859.38;5016767;28;20444;-67
2021/10/13 02:37:20;;;;;;;23.20;18.70;;;;;;;-140.05;100.00;61859.38;5010297;28;20457;-67
2021/10/13 02:39:46;;;;;;;24.03;19.07;;;;;;;-140.05;100.00;61859.38;5022137;28;20974;-67
2021/10/13 02:42:14;;;;;;;28.63;22.90;;;;;;;-140.05;100.00;61859.38;5021597;28;20440;-66
2021/10/13 02:44:44;;;;;;;23.57;18.43;;;;;;;-140.05;100.00;61859.38;5014383;28;20445;-68
2021/10/13 02:47:39;;;;;;;24.03;17.83;;;;;;;-140.05;100.00;61859.38;5010066;28;20444;-67
2021/10/13 02:50:28;;;;;;;21.67;18.03;;;;;;;-140.05;100.00;61859.38;5010577;28;20447;-67
2021/10/13 02:53:03;;;;;;;24.07;19.03;;;;;;;-140.05;100.00;61859.38;5008515;28;21010;-68
2021/10/13 02:55:34;;;;;;;26.10;19.63;;;;;;;-140.05;100.00;61859.38;5010281;28;20549;-68
2021/10/13 02:58:21;;;;;;;27.93;20.17;;;;;;;-140.05;100.00;61859.38;5010057;28;20462;-68
2021/10/13 03:00:51;;;;;;;24.83;19.07;;;;;;;-140.05;100.00;61859.38;5003144;28;20469;-68
2021/10/13 03:03:35;;;;;;;22.47;18.17;;;;;;;-140.05;100.00;61859.38;5002260;28;20540;-68
2021/10/13 03:06:06;;;;;;;24.17;18.70;;;;;;;-140.05;100.00;61859.38;5009822;28;20448;-68
2021/10/13 03:08:35;;;;;;;25.93;19.90;;;;;;;-140.05;100.00;61859.38;5011295;28;20456;-70
2021/10/13 03:11:04;;;;;;;24.47;19.13;;;;;;;-140.05;100.00;61859.38;5004237;28;20460;-69
2021/10/13 03:13:38;;;;;;;24.90;18.53;;;;;;;-140.05;100.00;61859.38;5002544;28;20811;-68
2021/10/13 03:16:08;;;;;;;24.60;18.03;;;;;;;-140.05;100.00;61859.38;5008795;28;20522;-67
2021/10/13 03:18:37;;;;;;;23.03;18.73;;;;;;;-140.05;100.00;61859.38;5009717;28;20555;-70
2021/10/13 03:21:06;;;;;;;24.97;19.40;;;;;;;-140.05;100.00;61859.38;5009285;28;20440;-69
2021/10/13 03:23:33;;;;;;;25.37;18.27;;;;;;;-140.05;100.00;61859.38;5009512;28;20451;-68
2021/10/13 03:26:12;;;;;;;24.37;18.00;;;;;;;-140.05;100.00;61859.38;5009072;28;20566;-66
2021/10/13 03:28:40;;;;;;;27.33;20.50;;;;;;;-140.05;100.00;61859.38;5009648;28;20454;-67
2021/10/13 03:31:08;;;;;;;25.93;19.30;;;;;;;-140.05;100.00;61859.38;5008561;28;20822;-67
2021/10/13 03:33:36;;;;;;;25.37;19.93;;;;;;;-140.05;100.00;61859.38;5007012;28;20444;-67
2021/10/13 03:36:05;;;;;;;26.87;19.57;;;;;;;-140.05;100.00;61859.38;4999928;28;20488;-68
2021/10/13 03:38:33;;;;;;;26.67;19.90;;;;;;;-140.05;100.00;61859.38;5004683;28;20446;-69
2021/10/13 03:41:01;;;;;;;24.10;19.07;;;;;;;-140.05;100.00;61859.38;5014112;28;20571;-68
2021/10/13 03:43:28;;;;;;;24.00;19.40;;;;;;;-140.05;100.00;61859.38;5005848;28;20448;-68
2021/10/13 03:45:55;;;;;;;25.40;19.47;;;;;;;-140.05;100.00;61859.38;4999463;28;20927;-69
2021/10/13 03:48:22;;;;;;;27.23;21.43;;;;;;;-140.05;100.00;61859.38;5009174;28;20746;-68
2021/10/13 03:50:48;;;;;;;26.27;20.20;;;;;;;-140.05;100.00;61859.38;5019597;28;20451;-69
2021/10/13 03:53:15;;;;;;;25.73;20.37;;;;;;;-140.05;100.00;61859.38;5012296;28;20457;-67
2021/10/13 03:55:42;;;;;;;26.63;20.00;;;;;;;-140.05;100.00;61859.38;5009365;28;20477;-68
2021/10/13 03:58:09;;;;;;;25.80;19.47;;;;;;;-140.05;100.00;61859.38;5009210;28;20651;-68
2021/10/13 04:00:37;;;;;;;25.50;20.03;;;;;;;-140.05;100.00;61859.38;5008116;28;20468;-71
2021/10/13 04:03:04;;;;;;;25.93;19.97;;;;;;;-140.05;100.00;61859.38;4998047;28;20831;-68
2021/10/13 04:05:31;;;;;;;24.37;20.27;;;;;;;-140.05;100.00;61859.38;5008997;28;20445;-70
2021/10/13 04:07:58;;;;;;;26.93;20.27;;;;;;;-140.05;100.00;61859.38;5008483;28;20580;-68
2021/10/13 04:10:24;;;;;;;26.37;21.20;;;;;;;-140.05;100.00;61859.38;5009341;28;20958;-67
2021/10/13 04:12:51;;;;;;;30.10;21.23;;;;;;;-140.05;100.00;61859.38;5008210;28;20440;-68
2021/10/13 04:15:18;;;;;;;27.40;19.80;;;;;;;-140.05;100.00;61859.38;5008158;28;20440;-67
2021/10/13 04:17:45;;;;;;;25.83;20.57;;;;;;;-140.05;100.00;61859.38;5005312;28;20532;-66
2021/10/13 04:20:12;;;;;;;26.07;20.43;;;;;;;-140.05;100.00;61859.38;5013197;28;20475;-67
2021/10/13 04:22:39;;;;;;;28.20;20.63;;;;;;;-140.05;100.00;61859.38;5010471;28;20441;-68
2021/10/13 04:25:07;;;;;;;29.13;21.73;;;;;;;-140.05;100.00;61859.38;5014195;28;20814;-66
2021/10/13 04:27:34;;;;;;;26.40;21.13;;;;;;;-140.05;100.00;61859.38;5016408;28;20472;-66
2021/10/13 04:30:03;;;;;;;28.37;21.27;;;;;;;-140.05;100.00;61859.38;5018423;28;20443;-67
2021/10/13 04:32:30;;;;;;;24.00;19.07;;;;;;;-140.05;100.00;61859.38;5005507;28;20448;-67
2021/10/13 04:34:57;;;;;;;28.53;20.03;;;;;;;-140.05;100.00;61859.38;5008232;28;20480;-64
2021/10/13 04:37:24;;;;;;;25.40;20.80;;;;;;;-140.05;100.00;61859.38;5001401;28;20473;-66
2021/10/13 04:39:51;;;;;;;25.77;20.20;;;;;;;-140.05;100.00;61859.38;4998436;28;20557;-67
2021/10/13 04:42:18;;;;;;;29.33;20.73;;;;;;;-140.05;100.00;61859.38;4994531;28;20449;-66
2021/10/13 04:44:45;;;;;;;29.50;22.47;;;;;;;-140.05;100.00;61859.38;5008036;28;20447;-68
2021/10/13 04:47:12;;;;;;;26.02;19.95;;;;;;;-140.05;100.00;61859.38;5007161;28;20456;-66
2021/10/13 04:49:39;;;;;;;28.17;21.63;;;;;;;-140.05;100.00;61859.38;4996034;28;20665;-68
2021/10/13 04:52:06;;;;;;;32.90;24.63;;;;;;;-140.05;100.00;61859.38;5014515;28;21037;-67
2021/10/13 04:54:32;;;;;;;75.30;49.10;;;;;;;-140.05;100.00;61859.38;5002342;28;20552;-66
2021/10/13 04:56:59;;;;;;;109.10;77.20;;;;;;;-140.05;100.00;61859.38;5011233;28;20918;-66
2021/10/13 04:59:26;;;;;;;30.53;22.67;;;;;;;-140.05;100.00;61859.38;5012069;28;20876;-68
2021/10/13 05:01:53;;;;;;;30.00;22.57;;;;;;;-140.05;100.00;61859.38;4997987;28;20449;-68
2021/10/13 05:04:20;;;;;;;33.07;22.53;;;;;;;-140.05;100.00;61859.38;5012112;28;20925;-64
2021/10/13 05:06:47;;;;;;;27.67;21.63;;;;;;;-140.05;100.00;61859.38;5012088;28;21024;-66
2021/10/13 05:09:15;;;;;;;28.33;22.03;;;;;;;-140.05;100.00;61859.38;5014056;28;20444;-70
2021/10/13 05:11:43;;;;;;;27.07;20.57;;;;;;;-140.05;100.00;61859.38;5012180;28;20889;-66
2021/10/13 05:14:11;;;;;;;27.57;21.27;;;;;;;-140.05;100.00;61859.38;5011514;28;20452;-65
2021/10/13 05:16:40;;;;;;;29.02;22.23;;;;;;;-140.05;100.00;61859.38;5013892;28;20476;-63
2021/10/13 05:19:10;;;;;;;32.37;21.83;;;;;;;-140.05;100.00;61859.38;5012431;28;20201;-66
2021/10/13 05:21:38;;;;;;;27.47;20.73;;;;;;;-140.05;100.00;61859.38;5012680;28;20499;-64
2021/10/13 05:24:08;;;;;;;29.88;20.80;;;;;;;-140.05;100.00;61859.38;5012987;28;20437;-66
2021/10/13 05:26:35;;;;;;;33.07;23.03;;;;;;;-140.05;100.00;61859.38;5005271;28;20677;-65
2021/10/13 05:29:02;;;;;;;69.20;54.67;;;;;;;-140.05;100.00;61859.38;5005019;28;20536;-64
2021/10/13 05:31:30;;;;;;;27.77;19.93;;;;;;;-140.05;100.00;61859.38;5006728;28;20433;-62
2021/10/13 05:33:58;;;;;;;24.43;20.20;;;;;;;-140.05;100.00;61859.38;5002232;28;20907;-64
2021/10/13 05:36:25;;;;;;;28.47;20.00;;;;;;;-140.05;100.00;61859.38;4994782;28;20501;-65
2021/10/13 05:38:56;;;;;;;26.23;18.60;;;;;;;-140.05;100.00;61859.38;5008242;28;20437;-62
2021/10/13 05:41:23;;;;;;;27.60;19.00;;;;;;;-140.05;100.00;61859.38;5008015;28;20583;-63
2021/10/13 05:43:50;;;;;;;25.37;18.90;;;;;;;-140.05;100.00;61859.38;5009358;28;20561;-63
2021/10/13 05:46:17;;;;;;;24.73;18.60;;;;;;;-140.05;100.00;61859.38;5009679;28;20548;-63
2021/10/13 05:48:44;;;;;;;23.60;17.87;;;;;;;-140.05;100.00;61859.38;5011412;28;20527;-63
2021/10/13 05:51:11;;;;;;;25.40;18.73;;;;;;;-140.05;100.00;61859.38;4998402;28;21298;-63
2021/10/13 05:53:38;;;;;;;23.83;18.30;;;;;;;-140.05;100.00;61859.38;4996299;28;20449;-63
2021/10/13 05:56:05;;;;;;;23.97;18.27;;;;;;;-140.05;100.00;61859.38;5011047;28;20468;-63
2021/10/13 05:58:32;;;;;;;24.60;18.43;;;;;;;-140.05;100.00;61859.38;5011586;28;20468;-63
2021/10/13 06:00:59;;;;;;;25.60;18.23;;;;;;;-140.05;100.00;61859.38;5009097;28;20496;-62
2021/10/13 06:03:26;;;;;;;22.10;17.00;;;;;;;-140.05;100.00;61859.38;5010454;28;20445;-64
2021/10/13 06:05:53;;;;;;;27.60;18.80;;;;;;;-140.05;100.00;61859.38;5011193;28;20467;-63
2021/10/13 06:08:21;;;;;;;23.23;17.17;;;;;;;-140.05;100.00;61859.38;5011282;28;20480;-63
2021/10/13 06:10:49;;;;;;;25.50;18.27;;;;;;;-140.05;100.00;61859.38;5024466;28;20941;-62
2021/10/13 06:13:16;;;;;;;21.53;17.30;;;;;;;-140.05;100.00;61859.38;5010603;28;20992;-63
2021/10/13 06:15:43;;;;;;;26.60;18.97;;;;;;;-140.05;100.00;61859.38;5011003;28;20444;-61
2021/10/13 06:18:11;;;;;;;23.97;18.43;;;;;;;-140.05;100.00;61859.38;5010738;28;20611;-63
2021/10/13 06:20:38;;;;;;;23.47;17.60;;;;;;;-140.05;100.00;61859.38;5010915;28;20452;-64
2021/10/13 06:23:05;;;;;;;20.93;17.53;;;;;;;-140.05;100.00;61859.38;5010360;28;20453;-63
2021/10/13 06:25:32;;;;;;;20.63;16.87;;;;;;;-140.05;100.00;61859.38;5010839;28;20461;-63
2021/10/13 06:28:00;;;;;;;22.90;16.93;;;;;;;-140.05;100.00;61859.38;5011634;28;20452;-65
2021/10/13 06:30:28;;;;;;;21.43;16.97;;;;;;;-140.05;100.00;61859.38;5011589;28;20455;-64
2021/10/13 06:32:55;;;;;;;24.87;17.00;;;;;;;-140.05;100.00;61859.38;5011271;28;20448;-64
2021/10/13 06:35:22;;;;;;;22.23;16.77;;;;;;;-140.05;100.00;61859.38;5011274;28;20445;-63
2021/10/13 06:37:49;;;;;;;31.57;27.67;;;;;;;-140.05;100.00;61859.38;5010225;28;21082;-63
2021/10/13 06:40:17;;;;;;;22.03;16.57;;;;;;;-140.05;100.00;61859.38;5010604;28;20455;-63
2021/10/13 06:42:44;;;;;;;24.00;16.60;;;;;;;-140.05;100.00;61859.38;5010382;28;20457;-63
2021/10/13 06:45:11;;;;;;;22.43;15.67;;;;;;;-140.05;100.00;61859.38;5010744;28;20963;-62
2021/10/13 06:47:38;;;;;;;20.87;16.97;;;;;;;-140.05;100.00;61859.38;5014051;28;20447;-64
2021/10/13 06:50:06;;;;;;;20.70;15.83;;;;;;;-140.05;100.00;61859.38;5016354;28;20970;-63
2021/10/13 06:52:34;;;;;;;22.07;16.13;;;;;;;-140.05;100.00;61859.38;5013370;28;20452;-63
2021/10/13 06:55:02;;;;;;;22.60;16.73;;;;;;;-140.05;100.00;61859.38;5024030;28;20440;-63
2021/10/13 06:57:29;;;;;;;22.13;16.73;;;;;;;-140.05;100.00;61859.38;5010081;28;20477;-64
2021/10/13 06:59:56;;;;;;;20.67;16.60;;;;;;;-140.05;100.00;61859.38;5010057;28;20479;-64
2021/10/13 07:02:22;;;;;;;23.70;17.73;;;;;;;-140.05;100.00;61859.38;4995370;28;20445;-64
2021/10/13 07:04:50;;;;;;;21.10;15.80;;;;;;;-140.05;100.00;61859.38;5010385;28;20453;-61
2021/10/13 07:07:16;;;;;;;19.33;15.90;;;;;;;-140.05;100.00;61859.38;5009679;28;20449;-62
2021/10/13 07:09:43;;;;;;;18.87;15.07;;;;;;;-140.05;100.00;61859.38;5010114;28;20973;-64
2021/10/13 07:12:10;;;;;;;22.53;17.00;;;;;;;-140.05;100.00;61859.38;5009385;28;20459;-63
2021/10/13 07:14:37;;;;;;;23.83;17.53;;;;;;;-140.05;100.00;61859.38;4995977;28;20962;-63
2021/10/13 07:17:04;;;;;;;22.57;17.60;;;;;;;-140.05;100.00;61859.38;5009484;28;20989;-64
2021/10/13 07:19:31;;;;;;;21.27;16.20;;;;;;;-140.05;100.00;61859.38;5010215;28;20456;-63
2021/10/13 07:21:58;;;;;;;24.97;15.30;;;;;;;-140.05;100.00;61859.38;5009573;28;20440;-63
2021/10/13 07:24:25;;;;;;;21.83;15.87;;;;;;;-140.05;100.00;61859.38;5009557;28;21000;-62
2021/10/13 07:26:52;;;;;;;21.37;13.20;;;;;;;-140.05;100.00;61859.38;5009783;28;20475;-62
2021/10/13 07:29:19;;;;;;;20.60;15.60;;;;;;;-140.05;100.00;61859.38;5009834;28;20464;-65
2021/10/13 07:31:46;;;;;;;17.77;14.23;;;;;;;-140.05;100.00;61859.38;5009598;28;20437;-64
2021/10/13 07:34:13;;;;;;;16.63;13.37;;;;;;;-140.05;100.00;61859.38;5009603;28;20498;-63
2021/10/13 07:36:40;;;;;;;19.20;14.13;;;;;;;-140.05;100.00;61859.38;5009430;28;20478;-63
2021/10/13 07:39:07;;;;;;;19.60;14.30;;;;;;;-140.05;100.00;61859.38;5010278;28;20816;-66
2021/10/13 07:41:35;;;;;;;15.97;12.20;;;;;;;-140.05;100.00;61859.38;5009134;28;20441;-62
2021/10/13 07:44:03;;;;;;;16.00;13.13;;;;;;;-140.05;100.00;61859.38;5009831;28;20460;-62
2021/10/13 07:46:29;;;;;;;16.97;13.30;;;;;;;-140.05;100.00;61859.38;5008782;28;20491;-64
2021/10/13 07:48:56;;;;;;;20.13;14.57;;;;;;;-140.05;100.00;61859.38;5009262;28;20432;-63
2021/10/13 07:51:23;;;;;;;16.13;13.23;;;;;;;-140.05;100.00;61859.38;5008567;28;20912;-63
2021/10/13 07:53:50;;;;;;;16.83;12.97;;;;;;;-140.05;100.00;61859.38;5009334;28;20962;-63
2021/10/13 07:56:17;;;;;;;16.37;13.40;;;;;;;-140.05;100.00;61859.38;5009172;28;20440;-65
2021/10/13 07:58:44;;;;;;;13.10;11.30;;;;;;;-140.05;100.00;61859.38;5009226;28;20451;-64
2021/10/13 08:01:14;;;;;;;16.17;12.80;;;;;;;-140.05;100.00;61859.38;4999421;28;20469;-62
2021/10/13 08:03:41;;;;;;;18.63;13.10;;;;;;;-140.05;100.00;61859.38;4993706;28;20446;-65
2021/10/13 08:06:09;;;;;;;17.20;13.00;;;;;;;-140.05;100.00;61859.38;5010852;28;21337;-64
2021/10/13 08:08:36;;;;;;;15.27;12.47;;;;;;;-140.05;100.00;61859.38;5014596;28;20444;-64
2021/10/13 08:11:03;;;;;;;18.93;13.47;;;;;;;-140.05;100.00;61859.38;5014358;28;20456;-64
2021/10/13 08:13:30;;;;;;;18.10;13.33;;;;;;;-140.05;100.00;61859.38;5015770;28;20449;-63
2021/10/13 08:15:57;;;;;;;20.00;12.47;;;;;;;-140.05;100.00;61859.38;5013321;28;20579;-65
2021/10/13 08:18:24;;;;;;;20.23;13.27;;;;;;;-140.05;100.00;61859.38;5013025;28;20476;-62
2021/10/13 08:20:51;;;;;;;20.17;13.33;;;;;;;-140.05;100.00;61859.38;5012866;28;20956;-63
2021/10/13 08:23:20;;;;;;;23.97;13.50;;;;;;;-140.05;100.00;61859.38;5013033;28;20444;-62
2021/10/13 08:25:47;;;;;;;17.77;13.30;;;;;;;-140.05;100.00;61859.38;5014283;28;20935;-62
2021/10/13 08:28:14;;;;;;;17.27;11.87;;;;;;;-140.05;100.00;61859.38;5015512;28;20459;-62
2021/10/13 08:30:41;;;;;;;17.77;11.67;;;;;;;-140.05;100.00;61859.38;5016106;28;20779;-62
2021/10/13 08:33:08;;;;;;;14.63;11.93;;;;;;;-140.05;100.00;61859.38;5014232;28;20444;-62
2021/10/13 08:35:36;;;;;;;16.53;12.50;;;;;;;-140.05;100.00;61859.38;5014682;28;20531;-64
2021/10/13 08:38:04;;;;;;;18.07;12.23;;;;;;;-140.05;100.00;61859.38;5012462;28;20492;-64
2021/10/13 08:40:32;;;;;;;17.80;12.63;;;;;;;-140.05;100.00;61859.38;5012905;28;20547;-63
2021/10/13 08:43:01;;;;;;;16.13;11.43;;;;;;;-140.05;100.00;61859.38;5012100;28;20981;-62
2021/10/13 08:45:30;;;;;;;18.57;13.27;;;;;;;-140.05;100.00;61859.38;5012850;28;20974;-65
2021/10/13 08:47:58;;;;;;;16.53;13.20;;;;;;;-140.05;100.00;61859.38;5012026;28;20551;-62
2021/10/13 08:50:26;;;;;;;21.10;14.07;;;;;;;-140.05;100.00;61859.38;5019417;28;20471;-64
2021/10/13 08:53:03;;;;;;;17.23;12.40;;;;;;;-140.05;100.00;61859.38;5018859;28;20456;-63
2021/10/13 08:55:30;;;;;;;15.00;12.60;;;;;;;-140.05;100.00;61859.38;4999105;28;20446;-62
2021/10/13 08:58:28;;;;;;;14.00;10.97;;;;;;;-140.05;100.00;61859.38;5024698;28;20582;-62
2021/10/13 09:01:03;;;;;;;15.73;11.73;;;;;;;-140.05;100.00;61859.38;5003339;28;20487;-63
2021/10/13 09:03:36;;;;;;;17.63;11.70;;;;;;;-140.05;100.00;61859.38;5007032;28;20451;-63
2021/10/13 09:06:30;;;;;;;17.83;10.63;;;;;;;-140.05;100.00;61859.38;5000032;28;20448;-62
2021/10/13 09:09:04;;;;;;;18.90;11.97;;;;;;;-140.05;100.00;61859.38;5012214;28;20527;-62
2021/10/13 09:11:37;;;;;;;22.40;11.83;;;;;;;-140.05;100.00;61859.38;5011632;28;20447;-61
2021/10/13 09:14:14;;;;;;;14.77;11.93;;;;;;;-140.05;100.00;61859.38;5011519;28;20997;-64
2021/10/13 09:17:16;;;;;;;14.47;10.93;;;;;;;-140.05;100.00;61859.38;5010811;28;20456;-64
2021/10/13 09:19:47;;;;;;;16.80;12.63;;;;;;;-140.05;100.00;61859.38;4998928;28;20459;-64
2021/10/13 09:22:16;;;;;;;15.43;11.73;;;;;;;-140.05;100.00;61859.38;5011431;28;20453;-64
2021/10/13 09:24:52;;;;;;;22.80;13.10;;;;;;;-140.05;100.00;61859.38;5011644;28;20444;-62
2021/10/13 09:27:24;;;;;;;15.90;11.77;;;;;;;-140.05;100.00;61859.38;5011255;28;20451;-63
2021/10/13 09:30:07;;;;;;;15.50;12.83;;;;;;;-140.05;100.00;61859.38;5012078;28;20451;-62
2021/10/13 09:32:41;;;;;;;17.30;12.10;;;;;;;-140.05;100.00;61859.38;5011449;28;20773;-63
2021/10/13 09:35:08;;;;;;;19.27;12.50;;;;;;;-140.05;100.00;61859.38;4999225;28;20449;-63
2021/10/13 09:37:47;;;;;;;15.07;11.80;;;;;;;-140.05;100.00;61859.38;5023516;28;20486;-64
2021/10/13 09:40:28;;;;;;;17.57;11.87;;;;;;;-140.05;100.00;61859.38;5011625;28;20452;-65
2021/10/13 09:42:58;;;;;;;14.60;11.23;;;;;;;-140.05;100.00;61859.38;5010960;28;20449;-63
2021/10/13 09:45:34;;;;;;;13.00;10.10;;;;;;;-140.05;100.00;61859.38;5011328;28;20528;-63
2021/10/13 09:48:04;;;;;;;13.93;10.80;;;;;;;-140.05;100.00;61859.38;5010959;28;20444;-63
2021/10/13 09:50:44;;;;;;;16.17;10.60;;;;;;;-140.05;100.00;61859.38;5011217;28;20562;-63
2021/10/13 09:53:19;;;;;;;13.83;9.10;;;;;;;-140.05;100.00;61859.38;5011088;28;20445;-63
2021/10/13 09:55:47;;;;;;;12.47;8.93;;;;;;;-140.05;100.00;61859.38;5020259;28;20543;-62
2021/10/13 09:58:36;;;;;;;13.17;9.17;;;;;;;-140.05;100.00;61859.38;5015649;28;20516;-64
2021/10/13 10:01:14;;;;;;;13.03;9.57;;;;;;;-140.05;100.00;61859.38;5011164;28;20476;-62
2021/10/13 10:03:45;;;;;;;16.23;8.90;;;;;;;-140.05;100.00;61859.38;5007724;28;20456;-63
2021/10/13 10:06:14;;;;;;;13.80;8.83;;;;;;;-140.05;100.00;61859.38;5000132;28;20448;-61
2021/10/13 10:08:50;;;;;;;10.47;8.17;;;;;;;-140.05;100.00;61859.38;5010939;28;20441;-66
2021/10/13 10:11:28;;;;;;;12.87;9.00;;;;;;;-140.05;100.00;61859.38;4997503;28;20456;-63
2021/10/13 10:13:55;;;;;;;14.57;9.07;;;;;;;-140.05;100.00;61859.38;5010765;28;20445;-64
2021/10/13 10:16:30;;;;;;;12.97;9.40;;;;;;;-140.05;100.00;61859.38;5010774;28;20433;-64
2021/10/13 10:19:23;;;;;;;12.17;8.83;;;;;;;-140.05;100.00;61859.38;5024516;28;20490;-63
2021/10/13 10:21:57;;;;;;;10.67;8.10;;;;;;;-140.05;100.00;61859.38;5010502;28;20452;-65
2021/10/13 10:24:34;;;;;;;12.30;8.87;;;;;;;-140.05;100.00;61859.38;5010819;28;20464;-63
2021/10/13 10:27:32;;;;;;;13.93;9.00;;;;;;;-140.05;100.00;61859.38;5009697;28;20456;-63
2021/10/13 10:30:14;;;;;;;16.03;8.77;;;;;;;-140.05;100.00;61859.38;4997139;28;20441;-63
2021/10/13 10:32:44;;;;;;;15.10;9.60;;;;;;;-140.05;100.00;61859.38;5009895;28;20451;-64
2021/10/13 10:35:15;;;;;;;14.50;9.13;;;;;;;-140.05;100.00;61859.38;5010664;28;20979;-64
2021/10/13 10:37:51;;;;;;;14.40;9.53;;;;;;;-140.05;100.00;61859.38;5010079;28;20484;-65
2021/10/13 10:40:32;;;;;;;13.63;9.93;;;;;;;-140.05;100.00;61859.38;5010760;28;20444;-64
2021/10/13 10:43:06;;;;;;;13.47;9.03;;;;;;;-140.05;100.00;61859.38;5009609;28;20539;-64
2021/10/13 10:45:47;;;;;;;10.10;8.03;;;;;;;-140.05;100.00;61859.38;5010525;28;20449;-62
2021/10/13 10:48:16;;;;;;;11.37;7.53;;;;;;;-140.05;100.00;61859.38;5009886;28;21269;-65
2021/10/13 10:50:53;;;;;;;11.90;8.40;;;;;;;-140.05;100.00;61859.38;5010711;28;20449;-63
2021/10/13 10:53:22;;;;;;;11.67;8.30;;;;;;;-140.05;100.00;61859.38;5010016;28;20460;-64
2021/10/13 10:55:50;;;;;;;12.10;8.43;;;;;;;-140.05;100.00;61859.38;5010382;28;20444;-65
2021/10/13 10:58:31;;;;;;;12.53;7.70;;;;;;;-140.05;100.00;61859.38;5023937;28;20478;-63
2021/10/13 11:01:20;;;;;;;13.87;8.63;;;;;;;-140.05;100.00;61859.38;4998461;28;20583;-62
2021/10/13 11:03:47;;;;;;;12.67;8.73;;;;;;;-140.05;100.00;61859.38;5007479;28;20437;-64
2021/10/13 11:06:26;;;;;;;13.17;9.10;;;;;;;-140.05;100.00;61859.38;5018573;28;20448;-65
2021/10/13 11:09:01;;;;;;;14.60;9.50;;;;;;;-140.05;100.00;61859.38;5017162;28;20452;-62
2021/10/13 11:11:43;;;;;;;13.27;9.00;;;;;;;-140.05;100.00;61859.38;5010443;28;20451;-62
2021/10/13 11:14:23;;;;;;;12.10;8.63;;;;;;;-140.05;100.00;61859.38;5009580;28;21033;-62